PWSweather.com
Personal Weather Stations
Station Observations
CAPEBRETON
Mira Road, Sydney, NS

Mira RoadSydney, NS

Lat: 46.1207292, Lon: -60.1594642

Elevation: 175

Station Type: AcuRite Professional Weather Center

http://pwscapebreton.wix.com/weather-watcher

Latest ConditionsUpdated 2:52:56 AM GMT-04:56 Sunday, Jul 23, 2017
Currently Today's Max Today's Min Today's Average
Temperature 49.5°F9.7°C 51.3°F10.7°C 49.1°F9.5°C 50.4°F10.2°C
Dew Point 45.8°F7.7°C 46.4°F8.0°C 45.1°F7.3°C 45.8°F7.7°C
Winds Calm Calm 2.7 mph ESE4.3 kmh ESE - 0.6 mph 1.0 kmh
Wind Gusts -- 2.7 mph4.3 kmh - -
Humidity 87% 87% 81% 84%
Pressure 29.69 in1005.4 mb 29.70 in1005.8 mb 29.69 in1005.4 mb -
Hour Temp Dew Point Humidity Winds Wind Gusts Pressure Precip Precip Rate Daily Precip Total
02:52 AM 49.5°F9.7°C 45.8°F7.7°C 87% Calm Calm -- 29.69 in1005.4 mb 0.00 in0.0 mm 0.00 in0.0 mm 0.00 in0.0 mm
02:51 AM 49.3°F9.6°C 45.6°F7.6°C 87% Calm Calm -- 29.69 in1005.4 mb 0.00 in0.0 mm 0.00 in0.0 mm 0.00 in0.0 mm
02:50 AM 49.3°F9.6°C 45.6°F7.6°C 87% Calm Calm -- 29.69 in1005.4 mb 0.00 in0.0 mm 0.00 in0.0 mm 0.00 in0.0 mm
02:49 AM 49.3°F9.6°C 45.6°F7.6°C 87% Calm Calm -- 29.69 in1005.4 mb 0.00 in0.0 mm 0.00 in0.0 mm 0.00 in0.0 mm
02:48 AM 49.3°F9.6°C 45.6°F7.6°C 87% Calm Calm -- 29.69 in1005.4 mb 0.00 in0.0 mm 0.00 in0.0 mm 0.00 in0.0 mm
02:47 AM 49.3°F9.6°C 45.6°F7.6°C 87% Calm Calm -- 29.69 in1005.4 mb 0.00 in0.0 mm 0.00 in0.0 mm 0.00 in0.0 mm
02:46 AM 49.3°F9.6°C 45.6°F7.6°C 87% Calm Calm -- 29.69 in1005.4 mb 0.00 in0.0 mm 0.00 in0.0 mm 0.00 in0.0 mm
02:45 AM 49.3°F9.6°C 45.6°F7.6°C 87% Calm Calm 1.1 mph1.8 kmh 29.69 in1005.4 mb 0.00 in0.0 mm 0.00 in0.0 mm 0.00 in0.0 mm
02:44 AM 49.1°F9.5°C 45.4°F7.4°C 87% Calm Calm 1.1 mph1.8 kmh 29.69 in1005.4 mb 0.00 in0.0 mm 0.00 in0.0 mm 0.00 in0.0 mm
02:43 AM 49.1°F9.5°C 45.1°F7.3°C 86% Calm Calm 1.7 mph2.7 kmh 29.69 in1005.4 mb 0.00 in0.0 mm 0.00 in0.0 mm 0.00 in0.0 mm
02:42 AM 49.1°F9.5°C 45.1°F7.3°C 86% Calm Calm 1.7 mph2.7 kmh 29.69 in1005.4 mb 0.00 in0.0 mm 0.00 in0.0 mm 0.00 in0.0 mm
02:41 AM 49.1°F9.5°C 45.1°F7.3°C 86% Calm Calm 1.7 mph2.7 kmh 29.69 in1005.4 mb 0.00 in0.0 mm 0.00 in0.0 mm 0.00 in0.0 mm
02:40 AM 49.1°F9.5°C 45.1°F7.3°C 86% Calm Calm 1.7 mph2.7 kmh 29.69 in1005.4 mb 0.00 in0.0 mm 0.00 in0.0 mm 0.00 in0.0 mm
02:39 AM 49.1°F9.5°C 45.1°F7.3°C 86% Calm Calm 1.7 mph2.7 kmh 29.70 in1005.8 mb 0.00 in0.0 mm 0.00 in0.0 mm 0.00 in0.0 mm
02:38 AM 49.1°F9.5°C 45.1°F7.3°C 86% Calm Calm 1.7 mph2.7 kmh 29.70 in1005.8 mb 0.00 in0.0 mm 0.00 in0.0 mm 0.00 in0.0 mm
02:37 AM 49.1°F9.5°C 45.1°F7.3°C 86% Calm Calm 1.7 mph2.7 kmh 29.70 in1005.8 mb 0.00 in0.0 mm 0.00 in0.0 mm 0.00 in0.0 mm
02:36 AM 49.1°F9.5°C 45.1°F7.3°C 86% Calm Calm 1.7 mph2.7 kmh 29.70 in1005.8 mb 0.00 in0.0 mm 0.00 in0.0 mm 0.00 in0.0 mm
02:35 AM 49.1°F9.5°C 45.1°F7.3°C 86% 1.1 mph SSE1.8 kmh SSE 1.7 mph2.7 kmh 29.70 in1005.8 mb 0.00 in0.0 mm 0.00 in0.0 mm 0.00 in0.0 mm
02:34 AM 49.1°F9.5°C 45.1°F7.3°C 86% Calm Calm 1.7 mph2.7 kmh 29.70 in1005.8 mb 0.00 in0.0 mm 0.00 in0.0 mm 0.00 in0.0 mm
02:33 AM 49.1°F9.5°C 45.1°F7.3°C 86% 1.7 mph ESE2.7 kmh ESE 1.7 mph2.7 kmh 29.70 in1005.8 mb 0.00 in0.0 mm 0.00 in0.0 mm 0.00 in0.0 mm
02:32 AM 49.1°F9.5°C 45.1°F7.3°C 86% Calm Calm 1.7 mph2.7 kmh 29.70 in1005.8 mb 0.00 in0.0 mm 0.00 in0.0 mm 0.00 in0.0 mm
02:31 AM 49.1°F9.5°C 45.1°F7.3°C 86% 1.7 mph SSE2.7 kmh SSE 1.7 mph2.7 kmh 29.70 in1005.8 mb 0.00 in0.0 mm 0.00 in0.0 mm 0.00 in0.0 mm
02:30 AM 49.3°F9.6°C 45.3°F7.4°C 86% Calm Calm -- 29.70 in1005.8 mb 0.00 in0.0 mm 0.00 in0.0 mm 0.00 in0.0 mm
02:29 AM 49.3°F9.6°C 45.3°F7.4°C 86% Calm Calm -- 29.70 in1005.8 mb 0.00 in0.0 mm 0.00 in0.0 mm 0.00 in0.0 mm
02:28 AM 49.3°F9.6°C 45.3°F7.4°C 86% Calm Calm -- 29.70 in1005.8 mb 0.00 in0.0 mm 0.00 in0.0 mm 0.00 in0.0 mm
02:27 AM 49.3°F9.6°C 45.3°F7.4°C 86% Calm Calm -- 29.69 in1005.4 mb 0.00 in0.0 mm 0.00 in0.0 mm 0.00 in0.0 mm
02:26 AM 49.3°F9.6°C 45.3°F7.4°C 86% Calm Calm -- 29.69 in1005.4 mb 0.00 in0.0 mm 0.00 in0.0 mm 0.00 in0.0 mm
02:25 AM 49.3°F9.6°C 45.3°F7.4°C 86% Calm Calm -- 29.69 in1005.4 mb 0.00 in0.0 mm 0.00 in0.0 mm 0.00 in0.0 mm
02:24 AM 49.3°F9.6°C 45.3°F7.4°C 86% Calm Calm -- 29.69 in1005.4 mb 0.00 in0.0 mm 0.00 in0.0 mm 0.00 in0.0 mm
02:23 AM 49.3°F9.6°C 45.3°F7.4°C 86% Calm Calm -- 29.69 in1005.4 mb 0.00 in0.0 mm 0.00 in0.0 mm 0.00 in0.0 mm
02:22 AM 49.3°F9.6°C 45.3°F7.4°C 86% Calm Calm -- 29.69 in1005.4 mb 0.00 in0.0 mm 0.00 in0.0 mm 0.00 in0.0 mm
02:21 AM 49.3°F9.6°C 45.3°F7.4°C 86% Calm Calm -- 29.69 in1005.4 mb 0.00 in0.0 mm 0.00 in0.0 mm 0.00 in0.0 mm
02:20 AM 49.3°F9.6°C 45.3°F7.4°C 86% Calm Calm -- 29.69 in1005.4 mb 0.00 in0.0 mm 0.00 in0.0 mm 0.00 in0.0 mm
02:19 AM 49.3°F9.6°C 45.3°F7.4°C 86% Calm Calm -- 29.69 in1005.4 mb 0.00 in0.0 mm 0.00 in0.0 mm 0.00 in0.0 mm
02:18 AM 49.3°F9.6°C 45.3°F7.4°C 86% Calm Calm -- 29.69 in1005.4 mb 0.00 in0.0 mm 0.00 in0.0 mm 0.00 in0.0 mm
02:17 AM 49.3°F9.6°C 45.3°F7.4°C 86% Calm Calm -- 29.69 in1005.4 mb 0.00 in0.0 mm 0.00 in0.0 mm 0.00 in0.0 mm
02:16 AM 49.5°F9.7°C 45.5°F7.5°C 86% Calm Calm 1.7 mph2.7 kmh 29.69 in1005.4 mb 0.00 in0.0 mm 0.00 in0.0 mm 0.00 in0.0 mm
02:15 AM 49.5°F9.7°C 45.5°F7.5°C 86% Calm Calm 1.7 mph2.7 kmh 29.69 in1005.4 mb 0.00 in0.0 mm 0.00 in0.0 mm 0.00 in0.0 mm
02:14 AM 49.5°F9.7°C 45.5°F7.5°C 86% Calm Calm 1.7 mph2.7 kmh 29.69 in1005.4 mb 0.00 in0.0 mm 0.00 in0.0 mm 0.00 in0.0 mm
02:13 AM 49.5°F9.7°C 45.2°F7.3°C 85% Calm Calm 1.7 mph2.7 kmh 29.69 in1005.4 mb 0.00 in0.0 mm 0.00 in0.0 mm 0.00 in0.0 mm
02:12 AM 49.5°F9.7°C 45.2°F7.3°C 85% Calm Calm 1.7 mph2.7 kmh 29.69 in1005.4 mb 0.00 in0.0 mm 0.00 in0.0 mm 0.00 in0.0 mm
02:11 AM 49.5°F9.7°C 45.2°F7.3°C 85% Calm Calm 1.7 mph2.7 kmh 29.69 in1005.4 mb 0.00 in0.0 mm 0.00 in0.0 mm 0.00 in0.0 mm
02:10 AM 49.5°F9.7°C 45.2°F7.3°C 85% Calm Calm 1.7 mph2.7 kmh 29.69 in1005.4 mb 0.00 in0.0 mm 0.00 in0.0 mm 0.00 in0.0 mm
02:09 AM 49.6°F9.8°C 45.3°F7.4°C 85% Calm Calm 1.7 mph2.7 kmh 29.69 in1005.4 mb 0.00 in0.0 mm 0.00 in0.0 mm 0.00 in0.0 mm
02:08 AM 49.6°F9.8°C 45.3°F7.4°C 85% Calm Calm 1.7 mph2.7 kmh 29.69 in1005.4 mb 0.00 in0.0 mm 0.00 in0.0 mm 0.00 in0.0 mm
02:07 AM 49.6°F9.8°C 45.3°F7.4°C 85% Calm Calm 1.7 mph2.7 kmh 29.69 in1005.4 mb 0.00 in0.0 mm 0.00 in0.0 mm 0.00 in0.0 mm
02:06 AM 49.6°F9.8°C 45.3°F7.4°C 85% 1.7 mph SSE2.7 kmh SSE 1.7 mph2.7 kmh 29.69 in1005.4 mb 0.00 in0.0 mm 0.00 in0.0 mm 0.00 in0.0 mm
02:05 AM 49.6°F9.8°C 45.3°F7.4°C 85% 1.1 mph SSE1.8 kmh SSE 1.7 mph2.7 kmh 29.69 in1005.4 mb 0.00 in0.0 mm 0.00 in0.0 mm 0.00 in0.0 mm
02:04 AM 49.6°F9.8°C 45.3°F7.4°C 85% Calm Calm 1.7 mph2.7 kmh 29.69 in1005.4 mb 0.00 in0.0 mm 0.00 in0.0 mm 0.00 in0.0 mm
02:03 AM 49.8°F9.9°C 45.5°F7.5°C 85% Calm Calm 1.7 mph2.7 kmh 29.69 in1005.4 mb 0.00 in0.0 mm 0.00 in0.0 mm 0.00 in0.0 mm
02:02 AM 49.8°F9.9°C 45.5°F7.5°C 85% Calm Calm 1.7 mph2.7 kmh 29.70 in1005.8 mb 0.00 in0.0 mm 0.00 in0.0 mm 0.00 in0.0 mm
02:01 AM 49.8°F9.9°C 45.5°F7.5°C 85% Calm Calm 1.7 mph2.7 kmh 29.70 in1005.8 mb 0.00 in0.0 mm 0.00 in0.0 mm 0.00 in0.0 mm
02:00 AM 49.8°F9.9°C 45.5°F7.5°C 85% 1.1 mph SSE1.8 kmh SSE 1.7 mph2.7 kmh 29.70 in1005.8 mb 0.00 in0.0 mm 0.00 in0.0 mm 0.00 in0.0 mm
01:59 AM 49.8°F9.9°C 45.5°F7.5°C 85% 1.7 mph SE2.7 kmh SE 1.7 mph2.7 kmh 29.70 in1005.8 mb 0.00 in0.0 mm 0.00 in0.0 mm 0.00 in0.0 mm
01:58 AM 50.0°F10.0°C 45.7°F7.6°C 85% Calm Calm -- 29.70 in1005.8 mb 0.00 in0.0 mm 0.00 in0.0 mm 0.00 in0.0 mm
01:57 AM 50.0°F10.0°C 45.7°F7.6°C 85% Calm Calm -- 29.70 in1005.8 mb 0.00 in0.0 mm 0.00 in0.0 mm 0.00 in0.0 mm
01:56 AM 50.0°F10.0°C 45.7°F7.6°C 85% Calm Calm -- 29.70 in1005.8 mb 0.00 in0.0 mm 0.00 in0.0 mm 0.00 in0.0 mm
01:55 AM 50.2°F10.1°C 45.9°F7.7°C 85% Calm Calm -- 29.70 in1005.8 mb 0.00 in0.0 mm 0.00 in0.0 mm 0.00 in0.0 mm
01:54 AM 50.2°F10.1°C 45.9°F7.7°C 85% Calm Calm 1.1 mph1.8 kmh 29.70 in1005.8 mb 0.00 in0.0 mm 0.00 in0.0 mm 0.00 in0.0 mm
01:53 AM 50.2°F10.1°C 45.9°F7.7°C 85% Calm Calm 1.1 mph1.8 kmh 29.70 in1005.8 mb 0.00 in0.0 mm 0.00 in0.0 mm 0.00 in0.0 mm
01:52 AM 50.2°F10.1°C 45.9°F7.7°C 85% Calm Calm 1.7 mph2.7 kmh 29.70 in1005.8 mb 0.00 in0.0 mm 0.00 in0.0 mm 0.00 in0.0 mm
01:51 AM 50.4°F10.2°C 46.1°F7.8°C 85% Calm Calm 1.7 mph2.7 kmh 29.70 in1005.8 mb 0.00 in0.0 mm 0.00 in0.0 mm 0.00 in0.0 mm
01:50 AM 50.4°F10.2°C 46.1°F7.8°C 85% Calm Calm 1.7 mph2.7 kmh 29.70 in1005.8 mb 0.00 in0.0 mm 0.00 in0.0 mm 0.00 in0.0 mm
01:49 AM 50.4°F10.2°C 46.1°F7.8°C 85% Calm Calm 1.7 mph2.7 kmh 29.70 in1005.8 mb 0.00 in0.0 mm 0.00 in0.0 mm 0.00 in0.0 mm
01:48 AM 50.4°F10.2°C 46.1°F7.8°C 85% Calm Calm 1.7 mph2.7 kmh 29.70 in1005.8 mb 0.00 in0.0 mm 0.00 in0.0 mm 0.00 in0.0 mm
01:47 AM 50.4°F10.2°C 46.1°F7.8°C 85% Calm Calm 2.2 mph3.5 kmh 29.70 in1005.8 mb 0.00 in0.0 mm 0.00 in0.0 mm 0.00 in0.0 mm
01:46 AM 50.5°F10.3°C 46.2°F7.9°C 85% Calm Calm 2.2 mph3.5 kmh 29.70 in1005.8 mb 0.00 in0.0 mm 0.00 in0.0 mm 0.00 in0.0 mm
01:45 AM 50.5°F10.3°C 46.2°F7.9°C 85% Calm Calm 2.2 mph3.5 kmh 29.70 in1005.8 mb 0.00 in0.0 mm 0.00 in0.0 mm 0.00 in0.0 mm
01:44 AM 50.5°F10.3°C 46.2°F7.9°C 85% Calm Calm 2.7 mph4.3 kmh 29.70 in1005.8 mb 0.00 in0.0 mm 0.00 in0.0 mm 0.00 in0.0 mm
01:43 AM 50.5°F10.3°C 46.2°F7.9°C 85% 1.1 mph SE1.8 kmh SE 2.7 mph4.3 kmh 29.70 in1005.8 mb 0.00 in0.0 mm 0.00 in0.0 mm 0.00 in0.0 mm
01:42 AM 50.5°F10.3°C 46.2°F7.9°C 85% Calm Calm 2.7 mph4.3 kmh 29.70 in1005.8 mb 0.00 in0.0 mm 0.00 in0.0 mm 0.00 in0.0 mm
01:41 AM 50.5°F10.3°C 46.2°F7.9°C 85% Calm Calm 2.7 mph4.3 kmh 29.70 in1005.8 mb 0.00 in0.0 mm 0.00 in0.0 mm 0.00 in0.0 mm
01:40 AM 50.5°F10.3°C 46.2°F7.9°C 85% Calm Calm 2.7 mph4.3 kmh 29.70 in1005.8 mb 0.00 in0.0 mm 0.00 in0.0 mm 0.00 in0.0 mm
01:39 AM 50.5°F10.3°C 46.2°F7.9°C 85% Calm Calm 2.7 mph4.3 kmh 29.70 in1005.8 mb 0.00 in0.0 mm 0.00 in0.0 mm 0.00 in0.0 mm
01:38 AM 50.7°F10.4°C 46.4°F8.0°C 85% 2.2 mph ESE3.5 kmh ESE 2.7 mph4.3 kmh 29.69 in1005.4 mb 0.00 in0.0 mm 0.00 in0.0 mm 0.00 in0.0 mm
01:37 AM 50.7°F10.4°C 46.4°F8.0°C 85% Calm Calm 2.7 mph4.3 kmh 29.69 in1005.4 mb 0.00 in0.0 mm 0.00 in0.0 mm 0.00 in0.0 mm
01:36 AM 50.7°F10.4°C 46.4°F8.0°C 85% 1.1 mph ESE1.8 kmh ESE 2.7 mph4.3 kmh 29.69 in1005.4 mb 0.00 in0.0 mm 0.00 in0.0 mm 0.00 in0.0 mm
01:35 AM 50.7°F10.4°C 46.4°F8.0°C 85% 2.2 mph SE3.5 kmh SE 2.7 mph4.3 kmh 29.69 in1005.4 mb 0.00 in0.0 mm 0.00 in0.0 mm 0.00 in0.0 mm
01:34 AM 50.7°F10.4°C 46.4°F8.0°C 85% 1.7 mph S2.7 kmh S 1.7 mph2.7 kmh 29.69 in1005.4 mb 0.00 in0.0 mm 0.00 in0.0 mm 0.00 in0.0 mm
01:33 AM 50.7°F10.4°C 46.4°F8.0°C 85% Calm Calm -- 29.69 in1005.4 mb 0.00 in0.0 mm 0.00 in0.0 mm 0.00 in0.0 mm
01:32 AM 50.7°F10.4°C 46.4°F8.0°C 85% Calm Calm -- 29.69 in1005.4 mb 0.00 in0.0 mm 0.00 in0.0 mm 0.00 in0.0 mm
01:31 AM 50.7°F10.4°C 46.4°F8.0°C 85% Calm Calm -- 29.69 in1005.4 mb 0.00 in0.0 mm 0.00 in0.0 mm 0.00 in0.0 mm
01:30 AM 50.7°F10.4°C 46.4°F8.0°C 85% Calm Calm -- 29.69 in1005.4 mb 0.00 in0.0 mm 0.00 in0.0 mm 0.00 in0.0 mm
01:29 AM 50.7°F10.4°C 46.4°F8.0°C 85% Calm Calm -- 29.69 in1005.4 mb 0.00 in0.0 mm 0.00 in0.0 mm 0.00 in0.0 mm
01:28 AM 50.7°F10.4°C 46.0°F7.8°C 84% Calm Calm -- 29.69 in1005.4 mb 0.00 in0.0 mm 0.00 in0.0 mm 0.00 in0.0 mm
01:27 AM 50.7°F10.4°C 46.0°F7.8°C 84% Calm Calm -- 29.69 in1005.4 mb 0.00 in0.0 mm 0.00 in0.0 mm 0.00 in0.0 mm
01:26 AM 50.7°F10.4°C 46.0°F7.8°C 84% Calm Calm 2.2 mph3.5 kmh 29.69 in1005.4 mb 0.00 in0.0 mm 0.00 in0.0 mm 0.00 in0.0 mm
01:25 AM 50.9°F10.5°C 46.2°F7.9°C 84% Calm Calm 2.2 mph3.5 kmh 29.69 in1005.4 mb 0.00 in0.0 mm 0.00 in0.0 mm 0.00 in0.0 mm
01:24 AM 50.9°F10.5°C 46.2°F7.9°C 84% Calm Calm 2.2 mph3.5 kmh 29.69 in1005.4 mb 0.00 in0.0 mm 0.00 in0.0 mm 0.00 in0.0 mm
01:23 AM 50.9°F10.5°C 46.2°F7.9°C 84% Calm Calm 2.2 mph3.5 kmh 29.69 in1005.4 mb 0.00 in0.0 mm 0.00 in0.0 mm 0.00 in0.0 mm
01:22 AM 50.9°F10.5°C 46.2°F7.9°C 84% Calm Calm 2.2 mph3.5 kmh 29.69 in1005.4 mb 0.00 in0.0 mm 0.00 in0.0 mm 0.00 in0.0 mm
01:21 AM 50.9°F10.5°C 46.2°F7.9°C 84% Calm Calm 2.2 mph3.5 kmh 29.69 in1005.4 mb 0.00 in0.0 mm 0.00 in0.0 mm 0.00 in0.0 mm
01:20 AM 50.9°F10.5°C 46.2°F7.9°C 84% Calm Calm 2.2 mph3.5 kmh 29.69 in1005.4 mb 0.00 in0.0 mm 0.00 in0.0 mm 0.00 in0.0 mm
01:19 AM 50.9°F10.5°C 46.2°F7.9°C 84% Calm Calm 2.2 mph3.5 kmh 29.69 in1005.4 mb 0.00 in0.0 mm 0.00 in0.0 mm 0.00 in0.0 mm
01:18 AM 51.1°F10.6°C 46.4°F8.0°C 84% Calm Calm 2.2 mph3.5 kmh 29.69 in1005.4 mb 0.00 in0.0 mm 0.00 in0.0 mm 0.00 in0.0 mm
01:17 AM 51.1°F10.6°C 46.4°F8.0°C 84% Calm Calm 2.2 mph3.5 kmh 29.69 in1005.4 mb 0.00 in0.0 mm 0.00 in0.0 mm 0.00 in0.0 mm
01:16 AM 51.1°F10.6°C 46.1°F7.8°C 83% 1.7 mph ESE2.7 kmh ESE 2.2 mph3.5 kmh 29.69 in1005.4 mb 0.00 in0.0 mm 0.00 in0.0 mm 0.00 in0.0 mm
01:15 AM 51.1°F10.6°C 46.1°F7.8°C 83% 1.7 mph ESE2.7 kmh ESE 2.2 mph3.5 kmh 29.69 in1005.4 mb 0.00 in0.0 mm 0.00 in0.0 mm 0.00 in0.0 mm
01:14 AM 51.1°F10.6°C 46.1°F7.8°C 83% 1.1 mph ESE1.8 kmh ESE 2.2 mph3.5 kmh 29.69 in1005.4 mb 0.00 in0.0 mm 0.00 in0.0 mm 0.00 in0.0 mm
01:13 AM 51.1°F10.6°C 46.1°F7.8°C 83% 1.1 mph SW1.8 kmh SW 2.2 mph3.5 kmh 29.69 in1005.4 mb 0.00 in0.0 mm 0.00 in0.0 mm 0.00 in0.0 mm
01:12 AM 51.1°F10.6°C 46.1°F7.8°C 83% 1.7 mph ESE2.7 kmh ESE 2.2 mph3.5 kmh 29.69 in1005.4 mb 0.00 in0.0 mm 0.00 in0.0 mm 0.00 in0.0 mm
01:11 AM 51.1°F10.6°C 46.1°F7.8°C 83% Calm Calm 2.2 mph3.5 kmh 29.69 in1005.4 mb 0.00 in0.0 mm 0.00 in0.0 mm 0.00 in0.0 mm
01:10 AM 51.1°F10.6°C 46.1°F7.8°C 83% 1.1 mph SSE1.8 kmh SSE 2.2 mph3.5 kmh 29.69 in1005.4 mb 0.00 in0.0 mm 0.00 in0.0 mm 0.00 in0.0 mm
01:09 AM 51.1°F10.6°C 46.1°F7.8°C 83% 1.1 mph ESE1.8 kmh ESE 2.2 mph3.5 kmh 29.69 in1005.4 mb 0.00 in0.0 mm 0.00 in0.0 mm 0.00 in0.0 mm
01:08 AM 51.1°F10.6°C 46.1°F7.8°C 83% Calm Calm 2.2 mph3.5 kmh 29.69 in1005.4 mb 0.00 in0.0 mm 0.00 in0.0 mm 0.00 in0.0 mm
01:07 AM 51.1°F10.6°C 46.1°F7.8°C 83% 2.2 mph SW3.5 kmh SW 2.2 mph3.5 kmh 29.69 in1005.4 mb 0.00 in0.0 mm 0.00 in0.0 mm 0.00 in0.0 mm
01:06 AM 51.1°F10.6°C 46.1°F7.8°C 83% 1.1 mph ESE1.8 kmh ESE 2.2 mph3.5 kmh 29.69 in1005.4 mb 0.00 in0.0 mm 0.00 in0.0 mm 0.00 in0.0 mm
01:05 AM 51.1°F10.6°C 46.1°F7.8°C 83% 1.7 mph ESE2.7 kmh ESE 2.2 mph3.5 kmh 29.69 in1005.4 mb 0.00 in0.0 mm 0.00 in0.0 mm 0.00 in0.0 mm
01:04 AM 51.1°F10.6°C 46.1°F7.8°C 83% Calm Calm 2.2 mph3.5 kmh 29.69 in1005.4 mb 0.00 in0.0 mm 0.00 in0.0 mm 0.00 in0.0 mm
01:03 AM 51.1°F10.6°C 46.1°F7.8°C 83% Calm Calm 2.2 mph3.5 kmh 29.69 in1005.4 mb 0.00 in0.0 mm 0.00 in0.0 mm 0.00 in0.0 mm
01:02 AM 51.1°F10.6°C 46.1°F7.8°C 83% 1.7 mph SSE2.7 kmh SSE 2.2 mph3.5 kmh 29.69 in1005.4 mb 0.00 in0.0 mm 0.00 in0.0 mm 0.00 in0.0 mm
01:01 AM 51.1°F10.6°C 46.1°F7.8°C 83% 1.1 mph ESE1.8 kmh ESE 2.2 mph3.5 kmh 29.69 in1005.4 mb 0.00 in0.0 mm 0.00 in0.0 mm 0.00 in0.0 mm
01:00 AM 51.1°F10.6°C 46.1°F7.8°C 83% Calm Calm 2.2 mph3.5 kmh 29.69 in1005.4 mb 0.00 in0.0 mm 0.00 in0.0 mm 0.00 in0.0 mm
12:59 AM 51.1°F10.6°C 46.1°F7.8°C 83% 1.1 mph SSE1.8 kmh SSE 2.2 mph3.5 kmh 29.69 in1005.4 mb 0.00 in0.0 mm 0.00 in0.0 mm 0.00 in0.0 mm
12:58 AM 51.1°F10.6°C 46.1°F7.8°C 83% 1.1 mph SE1.8 kmh SE 2.2 mph3.5 kmh 29.69 in1005.4 mb 0.00 in0.0 mm 0.00 in0.0 mm 0.00 in0.0 mm
12:57 AM 51.1°F10.6°C 46.1°F7.8°C 83% Calm Calm 2.2 mph3.5 kmh 29.69 in1005.4 mb 0.00 in0.0 mm 0.00 in0.0 mm 0.00 in0.0 mm
12:56 AM 51.1°F10.6°C 46.1°F7.8°C 83% 1.7 mph WSW2.7 kmh WSW 2.2 mph3.5 kmh 29.69 in1005.4 mb 0.00 in0.0 mm 0.00 in0.0 mm 0.00 in0.0 mm
12:55 AM 51.1°F10.6°C 46.1°F7.8°C 83% Calm Calm 2.2 mph3.5 kmh 29.69 in1005.4 mb 0.00 in0.0 mm 0.00 in0.0 mm 0.00 in0.0 mm
12:54 AM 51.1°F10.6°C 46.1°F7.8°C 83% 2.2 mph SSE3.5 kmh SSE 2.2 mph3.5 kmh 29.69 in1005.4 mb 0.00 in0.0 mm 0.00 in0.0 mm 0.00 in0.0 mm
12:53 AM 51.1°F10.6°C 46.1°F7.8°C 83% Calm Calm 2.2 mph3.5 kmh 29.69 in1005.4 mb 0.00 in0.0 mm 0.00 in0.0 mm 0.00 in0.0 mm
12:52 AM 51.1°F10.6°C 46.1°F7.8°C 83% 1.1 mph SE1.8 kmh SE 2.2 mph3.5 kmh 29.69 in1005.4 mb 0.00 in0.0 mm 0.00 in0.0 mm 0.00 in0.0 mm
12:51 AM 51.1°F10.6°C 46.1°F7.8°C 83% 1.7 mph ESE2.7 kmh ESE 2.2 mph3.5 kmh 29.69 in1005.4 mb 0.00 in0.0 mm 0.00 in0.0 mm 0.00 in0.0 mm
12:50 AM 51.1°F10.6°C 46.1°F7.8°C 83% 2.2 mph SSE3.5 kmh SSE 2.2 mph3.5 kmh 29.69 in1005.4 mb 0.00 in0.0 mm 0.00 in0.0 mm 0.00 in0.0 mm
12:49 AM 51.1°F10.6°C 46.1°F7.8°C 83% 1.7 mph S2.7 kmh S 2.2 mph3.5 kmh 29.69 in1005.4 mb 0.00 in0.0 mm 0.00 in0.0 mm 0.00 in0.0 mm
12:48 AM 51.1°F10.6°C 46.1°F7.8°C 83% Calm Calm 2.2 mph3.5 kmh 29.69 in1005.4 mb 0.00 in0.0 mm 0.00 in0.0 mm 0.00 in0.0 mm
12:47 AM 51.1°F10.6°C 46.1°F7.8°C 83% Calm Calm 2.2 mph3.5 kmh 29.69 in1005.4 mb 0.00 in0.0 mm 0.00 in0.0 mm 0.00 in0.0 mm
12:46 AM 51.1°F10.6°C 46.1°F7.8°C 83% 1.1 mph WSW1.8 kmh WSW 2.2 mph3.5 kmh 29.69 in1005.4 mb 0.00 in0.0 mm 0.00 in0.0 mm 0.00 in0.0 mm
12:45 AM 51.1°F10.6°C 45.8°F7.7°C 82% 1.7 mph ESE2.7 kmh ESE 2.2 mph3.5 kmh 29.69 in1005.4 mb 0.00 in0.0 mm 0.00 in0.0 mm 0.00 in0.0 mm
12:44 AM 51.1°F10.6°C 45.8°F7.7°C 82% Calm Calm 2.2 mph3.5 kmh 29.69 in1005.4 mb 0.00 in0.0 mm 0.00 in0.0 mm 0.00 in0.0 mm
12:43 AM 51.1°F10.6°C 45.8°F7.7°C 82% 1.7 mph SSE2.7 kmh SSE 2.2 mph3.5 kmh 29.69 in1005.4 mb 0.00 in0.0 mm 0.00 in0.0 mm 0.00 in0.0 mm
12:42 AM 51.1°F10.6°C 45.8°F7.7°C 82% 1.7 mph E2.7 kmh E 2.2 mph3.5 kmh 29.69 in1005.4 mb 0.00 in0.0 mm 0.00 in0.0 mm 0.00 in0.0 mm
12:41 AM 51.1°F10.6°C 45.8°F7.7°C 82% 1.7 mph E2.7 kmh E 2.2 mph3.5 kmh 29.69 in1005.4 mb 0.00 in0.0 mm 0.00 in0.0 mm 0.00 in0.0 mm
12:40 AM 51.1°F10.6°C 45.8°F7.7°C 82% 2.2 mph SE3.5 kmh SE 2.2 mph3.5 kmh 29.69 in1005.4 mb 0.00 in0.0 mm 0.00 in0.0 mm 0.00 in0.0 mm
12:39 AM 51.1°F10.6°C 45.8°F7.7°C 82% Calm Calm 2.2 mph3.5 kmh 29.69 in1005.4 mb 0.00 in0.0 mm 0.00 in0.0 mm 0.00 in0.0 mm
12:38 AM 51.1°F10.6°C 45.8°F7.7°C 82% 2.2 mph SE3.5 kmh SE 2.2 mph3.5 kmh 29.70 in1005.8 mb 0.00 in0.0 mm 0.00 in0.0 mm 0.00 in0.0 mm
12:37 AM 51.1°F10.6°C 45.8°F7.7°C 82% 1.7 mph SE2.7 kmh SE 2.2 mph3.5 kmh 29.70 in1005.8 mb 0.00 in0.0 mm 0.00 in0.0 mm 0.00 in0.0 mm
12:36 AM 51.1°F10.6°C 45.8°F7.7°C 82% Calm Calm 2.2 mph3.5 kmh 29.70 in1005.8 mb 0.00 in0.0 mm 0.00 in0.0 mm 0.00 in0.0 mm
12:35 AM 51.1°F10.6°C 45.8°F7.7°C 82% Calm Calm 2.2 mph3.5 kmh 29.70 in1005.8 mb 0.00 in0.0 mm 0.00 in0.0 mm 0.00 in0.0 mm
12:34 AM 51.1°F10.6°C 45.8°F7.7°C 82% 1.1 mph SSE1.8 kmh SSE 2.2 mph3.5 kmh 29.70 in1005.8 mb 0.00 in0.0 mm 0.00 in0.0 mm 0.00 in0.0 mm
12:33 AM 51.1°F10.6°C 45.8°F7.7°C 82% 2.2 mph SE3.5 kmh SE 2.2 mph3.5 kmh 29.70 in1005.8 mb 0.00 in0.0 mm 0.00 in0.0 mm 0.00 in0.0 mm
12:32 AM 51.1°F10.6°C 45.8°F7.7°C 82% Calm Calm 2.2 mph3.5 kmh 29.70 in1005.8 mb 0.00 in0.0 mm 0.00 in0.0 mm 0.00 in0.0 mm
12:31 AM 51.1°F10.6°C 45.8°F7.7°C 82% Calm Calm 2.2 mph3.5 kmh 29.70 in1005.8 mb 0.00 in0.0 mm 0.00 in0.0 mm 0.00 in0.0 mm
12:30 AM 51.1°F10.6°C 45.8°F7.7°C 82% Calm Calm 2.7 mph4.3 kmh 29.70 in1005.8 mb 0.00 in0.0 mm 0.00 in0.0 mm 0.00 in0.0 mm
12:29 AM 51.1°F10.6°C 45.8°F7.7°C 82% Calm Calm 2.7 mph4.3 kmh 29.70 in1005.8 mb 0.00 in0.0 mm 0.00 in0.0 mm 0.00 in0.0 mm
12:28 AM 51.1°F10.6°C 45.8°F7.7°C 82% 1.7 mph NNE2.7 kmh NNE 2.7 mph4.3 kmh 29.70 in1005.8 mb 0.00 in0.0 mm 0.00 in0.0 mm 0.00 in0.0 mm
12:27 AM 51.1°F10.6°C 45.8°F7.7°C 82% 1.7 mph ESE2.7 kmh ESE 2.7 mph4.3 kmh 29.70 in1005.8 mb 0.00 in0.0 mm 0.00 in0.0 mm 0.00 in0.0 mm
12:26 AM 51.1°F10.6°C 45.8°F7.7°C 82% 1.1 mph SSE1.8 kmh SSE 2.7 mph4.3 kmh 29.69 in1005.4 mb 0.00 in0.0 mm 0.00 in0.0 mm 0.00 in0.0 mm
12:25 AM 51.1°F10.6°C 45.8°F7.7°C 82% 1.7 mph SE2.7 kmh SE 2.7 mph4.3 kmh 29.69 in1005.4 mb 0.00 in0.0 mm 0.00 in0.0 mm 0.00 in0.0 mm
12:24 AM 51.1°F10.6°C 45.8°F7.7°C 82% 1.1 mph SSE1.8 kmh SSE 2.7 mph4.3 kmh 29.69 in1005.4 mb 0.00 in0.0 mm 0.00 in0.0 mm 0.00 in0.0 mm
12:23 AM 51.1°F10.6°C 45.8°F7.7°C 82% 1.7 mph ESE2.7 kmh ESE 2.7 mph4.3 kmh 29.69 in1005.4 mb 0.00 in0.0 mm 0.00 in0.0 mm 0.00 in0.0 mm
12:22 AM 51.1°F10.6°C 45.8°F7.7°C 82% 1.1 mph E1.8 kmh E 2.7 mph4.3 kmh 29.69 in1005.4 mb 0.00 in0.0 mm 0.00 in0.0 mm 0.00 in0.0 mm
12:21 AM 51.1°F10.6°C 45.8°F7.7°C 82% Calm Calm 2.7 mph4.3 kmh 29.69 in1005.4 mb 0.00 in0.0 mm 0.00 in0.0 mm 0.00 in0.0 mm
12:20 AM 51.1°F10.6°C 45.8°F7.7°C 82% 2.7 mph E4.3 kmh E 2.7 mph4.3 kmh 29.69 in1005.4 mb 0.00 in0.0 mm 0.00 in0.0 mm 0.00 in0.0 mm
12:19 AM 51.1°F10.6°C 45.8°F7.7°C 82% Calm Calm 2.7 mph4.3 kmh 29.69 in1005.4 mb 0.00 in0.0 mm 0.00 in0.0 mm 0.00 in0.0 mm
12:18 AM 51.1°F10.6°C 45.8°F7.7°C 82% Calm Calm 2.7 mph4.3 kmh 29.69 in1005.4 mb 0.00 in0.0 mm 0.00 in0.0 mm 0.00 in0.0 mm
12:17 AM 51.1°F10.6°C 45.8°F7.7°C 82% 1.7 mph SW2.7 kmh SW 2.7 mph4.3 kmh 29.69 in1005.4 mb 0.00 in0.0 mm 0.00 in0.0 mm 0.00 in0.0 mm
12:16 AM 51.1°F10.6°C 45.8°F7.7°C 82% 1.7 mph WSW2.7 kmh WSW 2.7 mph4.3 kmh 29.69 in1005.4 mb 0.00 in0.0 mm 0.00 in0.0 mm 0.00 in0.0 mm
12:15 AM 51.1°F10.6°C 45.8°F7.7°C 82% 1.7 mph SSE2.7 kmh SSE 2.7 mph4.3 kmh 29.70 in1005.8 mb 0.00 in0.0 mm 0.00 in0.0 mm 0.00 in0.0 mm
12:14 AM 51.1°F10.6°C 45.8°F7.7°C 82% Calm Calm 2.7 mph4.3 kmh 29.70 in1005.8 mb 0.00 in0.0 mm 0.00 in0.0 mm 0.00 in0.0 mm
12:13 AM 51.1°F10.6°C 45.8°F7.7°C 82% 1.1 mph SE1.8 kmh SE 2.7 mph4.3 kmh 29.70 in1005.8 mb 0.00 in0.0 mm 0.00 in0.0 mm 0.00 in0.0 mm
12:12 AM 51.1°F10.6°C 45.8°F7.7°C 82% 1.7 mph ESE2.7 kmh ESE 2.7 mph4.3 kmh 29.70 in1005.8 mb 0.00 in0.0 mm 0.00 in0.0 mm 0.00 in0.0 mm
12:11 AM 51.1°F10.6°C 45.8°F7.7°C 82% 1.7 mph ESE2.7 kmh ESE 2.2 mph3.5 kmh 29.70 in1005.8 mb 0.00 in0.0 mm 0.00 in0.0 mm 0.00 in0.0 mm
12:10 AM 51.1°F10.6°C 45.8°F7.7°C 82% Calm Calm 2.2 mph3.5 kmh 29.70 in1005.8 mb 0.00 in0.0 mm 0.00 in0.0 mm 0.00 in0.0 mm
12:09 AM 51.3°F10.7°C 46.0°F7.8°C 82% Calm Calm 2.2 mph3.5 kmh 29.70 in1005.8 mb 0.00 in0.0 mm 0.00 in0.0 mm 0.00 in0.0 mm
12:08 AM 51.3°F10.7°C 46.0°F7.8°C 82% 2.2 mph ESE3.5 kmh ESE 2.2 mph3.5 kmh 29.70 in1005.8 mb 0.00 in0.0 mm 0.00 in0.0 mm 0.00 in0.0 mm
12:07 AM 51.3°F10.7°C 46.0°F7.8°C 82% 1.1 mph ESE1.8 kmh ESE 2.2 mph3.5 kmh 29.70 in1005.8 mb 0.00 in0.0 mm 0.00 in0.0 mm 0.00 in0.0 mm
12:06 AM 51.3°F10.7°C 46.0°F7.8°C 82% 1.7 mph SSW2.7 kmh SSW 2.2 mph3.5 kmh 29.70 in1005.8 mb 0.00 in0.0 mm 0.00 in0.0 mm 0.00 in0.0 mm
12:05 AM 51.3°F10.7°C 46.0°F7.8°C 82% 2.2 mph ESE3.5 kmh ESE 2.2 mph3.5 kmh 29.70 in1005.8 mb 0.00 in0.0 mm 0.00 in0.0 mm 0.00 in0.0 mm
12:04 AM 51.3°F10.7°C 46.0°F7.8°C 82% 2.2 mph SSE3.5 kmh SSE 2.2 mph3.5 kmh 29.70 in1005.8 mb 0.00 in0.0 mm 0.00 in0.0 mm 0.00 in0.0 mm
12:03 AM 51.3°F10.7°C 45.7°F7.6°C 81% Calm Calm 2.2 mph3.5 kmh 29.70 in1005.8 mb 0.00 in0.0 mm 0.00 in0.0 mm 0.00 in0.0 mm
12:02 AM 51.3°F10.7°C 45.7°F7.6°C 81% 2.2 mph S3.5 kmh S 2.2 mph3.5 kmh 29.70 in1005.8 mb 0.00 in0.0 mm 0.00 in0.0 mm 0.00 in0.0 mm
12:01 AM 51.3°F10.7°C 45.7°F7.6°C 81% 2.2 mph S3.5 kmh S 2.2 mph3.5 kmh 29.70 in1005.8 mb 0.00 in0.0 mm 0.00 in0.0 mm 0.00 in0.0 mm
12:00 AM 51.3°F10.7°C 45.7°F7.6°C 81% 1.1 mph SE1.8 kmh SE 2.2 mph3.5 kmh 29.70 in1005.8 mb 0.00 in0.0 mm 0.00 in0.0 mm 0.00 in0.0 mm